createdAt,value
2022-10-09T00:00:02.415Z,9.3
2022-10-09T00:05:03.611Z,9.3
2022-10-09T00:10:01.705Z,9.3
2022-10-09T00:15:01.874Z,9.2
2022-10-09T00:20:02.006Z,9.2
2022-10-09T00:25:02.072Z,9.2
2022-10-09T00:30:02.313Z,9.2
2022-10-09T00:35:02.386Z,9.1
2022-10-09T00:40:02.585Z,9.1
2022-10-09T00:45:01.793Z,9.1
2022-10-09T00:50:01.878Z,9.1
2022-10-09T00:55:02.009Z,9
2022-10-09T01:00:02.259Z,9
2022-10-09T01:05:03.312Z,8.9
2022-10-09T01:10:02.445Z,8.8
2022-10-09T01:15:03.159Z,8.8
2022-10-09T01:20:01.718Z,8.7
2022-10-09T01:25:01.935Z,8.7
2022-10-09T01:30:02.147Z,8.6
2022-10-09T01:35:03.079Z,8.6
2022-10-09T01:40:02.405Z,8.6
2022-10-09T01:45:02.599Z,8.5
2022-10-09T01:50:01.622Z,8.4
2022-10-09T01:55:01.768Z,8.4
2022-10-09T02:00:02.263Z,8.4
2022-10-09T02:05:02.339Z,8.3
2022-10-09T02:10:02.441Z,8.3
2022-10-09T02:15:02.621Z,8.3
2022-10-09T02:20:01.797Z,8.3
2022-10-09T02:25:01.925Z,8.3
2022-10-09T02:30:02.178Z,8.2
2022-10-09T02:35:03.190Z,8.2
2022-10-09T02:40:04.896Z,8.2
2022-10-09T02:45:02.612Z,8.2
2022-10-09T02:50:01.689Z,8.2
2022-10-09T02:55:01.851Z,8.3
2022-10-09T03:00:02.309Z,8.4
2022-10-09T03:05:03.371Z,8.4
2022-10-09T03:10:02.839Z,8.5
2022-10-09T03:15:02.717Z,8.6
2022-10-09T03:20:02.705Z,8.5
2022-10-09T03:25:02.801Z,8.5
2022-10-09T03:30:02.532Z,8.6
2022-10-09T03:35:02.547Z,8.6
2022-10-09T03:40:02.452Z,8.6
2022-10-09T03:45:02.573Z,8.6
2022-10-09T03:50:01.686Z,8.6
2022-10-09T03:55:02.083Z,8.6
2022-10-09T04:00:01.852Z,8.6
2022-10-09T04:05:02.008Z,8.5
2022-10-09T04:10:02.138Z,8.5
2022-10-09T04:15:02.383Z,8.6
2022-10-09T04:20:02.451Z,8.4
2022-10-09T04:25:03.292Z,8.4
2022-10-09T04:30:02.622Z,8.4
2022-10-09T04:35:01.636Z,8.3
2022-10-09T04:40:01.792Z,8.4
2022-10-09T04:45:02.075Z,8.3
2022-10-09T04:50:02.084Z,8.2
2022-10-09T04:55:02.223Z,8.2
2022-10-09T05:00:02.445Z,8.1
2022-10-09T05:05:02.620Z,8.1
2022-10-09T05:10:01.780Z,8
2022-10-09T05:15:02.124Z,7.9
2022-10-09T05:20:02.069Z,7.9
2022-10-09T05:25:02.217Z,7.8
2022-10-09T05:30:02.487Z,7.8
2022-10-09T05:35:03.447Z,7.8
2022-10-09T05:40:02.702Z,7.7
2022-10-09T05:45:01.910Z,7.7
2022-10-09T05:50:02.092Z,7.7
2022-10-09T05:55:02.587Z,7.7
2022-10-09T06:00:01.840Z,7.7
2022-10-09T06:05:03.555Z,7.7
2022-10-09T06:10:02.298Z,7.7
2022-10-09T06:15:02.538Z,7.7
2022-10-09T06:20:02.750Z,7.8
2022-10-09T06:25:01.732Z,7.8
2022-10-09T06:30:01.986Z,7.8
2022-10-09T06:35:03.019Z,7.9
2022-10-09T06:40:03.222Z,8
2022-10-09T06:45:02.565Z,8.2
2022-10-09T06:50:02.590Z,8.3
2022-10-09T06:55:01.704Z,8.5
2022-10-09T07:00:02.068Z,8.8
2022-10-09T07:05:03.040Z,9
2022-10-09T07:10:03.281Z,9.3
2022-10-09T07:15:02.516Z,9.5
2022-10-09T07:20:02.664Z,9.8
2022-10-09T07:25:01.734Z,10
2022-10-09T07:30:01.977Z,10.2
2022-10-09T07:35:03.039Z,10.6
2022-10-09T07:40:03.188Z,10.8
2022-10-09T07:45:03.499Z,11
2022-10-09T07:50:02.601Z,11.4
2022-10-09T07:55:01.996Z,11.6
2022-10-09T08:00:02.802Z,11.9
2022-10-09T08:05:02.695Z,12.2
2022-10-09T08:10:02.791Z,12.5
2022-10-09T08:15:03.147Z,12.7
2022-10-09T08:20:02.204Z,13
2022-10-09T08:25:02.353Z,13.2
2022-10-09T08:30:03.194Z,13.3
2022-10-09T08:35:03.627Z,13.7
2022-10-09T08:40:02.753Z,13.9
2022-10-09T08:45:03.074Z,14.1
2022-10-09T08:50:02.131Z,14.4
2022-10-09T08:55:02.068Z,14.5
2022-10-09T09:00:02.301Z,14.7
2022-10-09T09:05:03.806Z,14.9
2022-10-09T09:10:03.524Z,15.1
2022-10-09T09:15:02.840Z,15.1
2022-10-09T09:20:01.902Z,15.3
2022-10-09T09:25:02.072Z,15.5
2022-10-09T09:30:02.344Z,15.7
2022-10-09T09:35:03.662Z,15.8
2022-10-09T09:45:03.423Z,16.1
2022-10-09T09:50:02.492Z,16.2
2022-10-09T09:55:02.735Z,16.6
2022-10-09T10:00:01.748Z,16.8
2022-10-09T10:05:02.946Z,16.9
2022-10-09T10:10:03.098Z,17.1
2022-10-09T10:15:03.543Z,17.1
2022-10-09T10:20:02.476Z,17.3
2022-10-09T10:25:02.609Z,17.4
2022-10-09T10:30:01.831Z,17.4
2022-10-09T10:35:02.957Z,17.8
2022-10-09T10:40:03.042Z,18
2022-10-09T10:45:03.473Z,18.1
2022-10-09T10:50:02.449Z,17.9
2022-10-09T10:55:02.904Z,18
2022-10-09T11:00:03.756Z,18
2022-10-09T11:05:02.669Z,18
2022-10-09T11:10:02.874Z,17.5
2022-10-09T11:15:03.207Z,17.2
2022-10-09T11:20:02.261Z,16.8
2022-10-09T11:25:02.381Z,16.4
2022-10-09T11:30:02.602Z,16.3
2022-10-09T11:35:03.666Z,16.4
2022-10-09T11:40:02.767Z,16.5
2022-10-09T11:45:03.171Z,16.4
2022-10-09T11:50:02.118Z,16.7
2022-10-09T11:55:02.250Z,17
2022-10-09T12:00:03.521Z,16.9
2022-10-09T12:05:03.571Z,16.9
2022-10-09T12:10:02.688Z,17
2022-10-09T12:15:03.110Z,16.9
2022-10-09T12:20:02.990Z,17.5
2022-10-09T12:25:02.150Z,18
2022-10-09T12:30:02.397Z,18.2
2022-10-09T12:35:03.580Z,18.3
2022-10-09T12:40:02.703Z,17.9
2022-10-09T12:45:03.132Z,17.6
2022-10-09T12:50:02.010Z,17.3
2022-10-09T12:55:02.214Z,17.4
2022-10-09T13:00:02.354Z,17.4
2022-10-09T13:05:03.396Z,17.4
2022-10-09T13:10:03.570Z,17.1
2022-10-09T13:15:02.998Z,16.9
2022-10-09T13:20:01.853Z,17.3
2022-10-09T13:25:02.017Z,17.6
2022-10-09T13:30:02.217Z,17.8
2022-10-09T13:35:03.383Z,17.9
2022-10-09T13:40:02.093Z,17.9
2022-10-09T13:45:02.308Z,18
2022-10-09T13:50:03.364Z,18.1
2022-10-09T13:55:02.659Z,18
2022-10-09T14:00:01.755Z,17.8
2022-10-09T14:05:02.814Z,18
2022-10-09T14:10:03.149Z,18.1
2022-10-09T14:15:03.543Z,18.2
2022-10-09T14:20:02.558Z,17.8
2022-10-09T14:25:01.877Z,18
2022-10-09T14:30:02.082Z,18.2
2022-10-09T14:35:03.304Z,17.8
2022-10-09T14:40:03.538Z,17.4
2022-10-09T14:45:03.763Z,17.4
2022-10-09T14:50:01.814Z,17.2
2022-10-09T14:55:02.244Z,17.3
2022-10-09T15:00:02.395Z,17.3
2022-10-09T15:05:03.904Z,17.3
2022-10-09T15:10:02.621Z,17.1
2022-10-09T15:15:03.605Z,17
2022-10-09T15:20:02.661Z,16.6
2022-10-09T15:25:01.755Z,16.3
2022-10-09T15:30:03.089Z,16.1
2022-10-09T15:35:03.120Z,15.9
2022-10-09T15:40:03.246Z,15.7
2022-10-09T15:45:03.712Z,15.6
2022-10-09T15:50:01.700Z,15.4
2022-10-09T15:55:01.920Z,15.4
2022-10-09T16:00:02.188Z,15.3
2022-10-09T16:05:03.226Z,15.3
2022-10-09T16:10:03.302Z,15.2
2022-10-09T16:15:03.747Z,15.2
2022-10-09T16:20:02.703Z,15
2022-10-09T16:25:01.904Z,14.9
2022-10-09T16:30:02.097Z,14.7
2022-10-09T16:35:03.171Z,14.5
2022-10-09T16:40:03.473Z,14.4
2022-10-09T16:45:03.029Z,14.3
2022-10-09T16:50:02.140Z,14
2022-10-09T16:55:02.475Z,13.9
2022-10-09T17:00:02.801Z,13.7
2022-10-09T17:05:02.695Z,13.6
2022-10-09T17:10:02.820Z,13.5
2022-10-09T17:15:03.202Z,13.3
2022-10-09T17:20:02.214Z,13.1
2022-10-09T17:25:02.346Z,13
2022-10-09T17:30:03.079Z,12.9
2022-10-09T17:35:03.641Z,12.8
2022-10-09T17:40:02.923Z,12.7
2022-10-09T17:45:03.329Z,12.6
2022-10-09T17:50:02.171Z,12.5
2022-10-09T17:55:02.292Z,12.4
2022-10-09T18:00:02.497Z,12.3
2022-10-09T18:05:03.624Z,12.1
2022-10-09T18:10:03.339Z,12.1
2022-10-09T18:15:03.510Z,12
2022-10-09T18:20:02.523Z,11.9
2022-10-09T18:25:02.670Z,11.9
2022-10-09T18:30:01.864Z,11.8
2022-10-09T18:35:02.989Z,11.7
2022-10-09T18:40:03.030Z,11.8
2022-10-09T18:45:03.483Z,11.7
2022-10-09T18:50:03.020Z,11.7
2022-10-09T18:55:02.126Z,11.7
2022-10-09T19:00:02.492Z,11.7
2022-10-09T19:05:03.402Z,11.6
2022-10-09T19:10:03.580Z,11.7
2022-10-09T19:15:02.869Z,11.6
2022-10-09T19:20:01.977Z,11.6
2022-10-09T19:25:02.163Z,11.6
2022-10-09T19:30:02.428Z,11.6
2022-10-09T19:35:03.485Z,11.5
2022-10-09T19:40:03.557Z,11.5
2022-10-09T19:45:03.067Z,11.5
2022-10-09T19:50:01.902Z,11.4
2022-10-09T19:55:02.262Z,11.4
2022-10-09T20:00:02.482Z,11.4
2022-10-09T20:05:02.825Z,11.3
2022-10-09T20:10:03.266Z,11.3
2022-10-09T20:15:03.379Z,11.4
2022-10-09T20:20:02.516Z,11.2
2022-10-09T20:25:02.635Z,11.2
2022-10-09T20:30:01.804Z,11.1
2022-10-09T20:35:02.918Z,11
2022-10-09T20:40:03.057Z,11
2022-10-09T20:45:03.376Z,11
2022-10-09T20:50:02.478Z,11
2022-10-09T20:55:02.261Z,10.9
2022-10-09T21:00:02.091Z,10.9
2022-10-09T21:05:03.065Z,10.9
2022-10-09T21:10:03.146Z,10.8
2022-10-09T21:15:03.660Z,10.8
2022-10-09T21:20:02.731Z,10.8
2022-10-09T21:25:01.717Z,10.7
2022-10-09T21:30:01.967Z,10.7
2022-10-09T21:35:03.102Z,10.6
2022-10-09T21:40:03.245Z,10.6
2022-10-09T21:45:03.631Z,10.6
2022-10-09T21:50:02.608Z,10.5
2022-10-09T21:55:01.734Z,10.5
2022-10-09T22:00:02.654Z,10.5
2022-10-09T22:05:02.061Z,10.5
2022-10-09T22:10:02.250Z,10.4
2022-10-09T22:15:02.535Z,10.5
2022-10-09T22:20:01.819Z,10.5
2022-10-09T22:25:01.994Z,10.5
2022-10-09T22:30:02.201Z,10.4
2022-10-09T22:35:02.400Z,10.4
2022-10-09T22:40:02.529Z,10.4
2022-10-09T22:45:01.740Z,10.4
2022-10-09T22:50:01.896Z,10.3
2022-10-09T22:55:02.818Z,10.3
2022-10-09T23:00:03.148Z,10.3
2022-10-09T23:05:02.515Z,10.2
2022-10-09T23:10:03.041Z,10.2
2022-10-09T23:15:03.148Z,10.1
2022-10-09T23:20:01.865Z,10.1
2022-10-09T23:25:02.811Z,10.1
2022-10-09T23:30:02.501Z,9.9
2022-10-09T23:35:02.901Z,9.8
2022-10-09T23:40:02.524Z,9.8
2022-10-09T23:45:02.596Z,9.8
2022-10-09T23:50:02.598Z,9.8
2022-10-09T23:55:01.899Z,9.7
